MSC Florentina — HPFH — position and weather

sailwx.info

Track history (hours):
 
Tides and Currents Weather Stations Pressure Air Temp Water Temp Dewpoint Dewpoint Depression Visibility Wind Speed Wind Dir Waves Ship Positions

MSC Florentina

Last reported at 2016-Jul-20 01:19 UTC. Time now 2016-Jul-28 16:22 UTC.
Position N 29°20' W 094°40'.
Warning: this ship's position is 8 days out of date.

Length 300 m; draft 11.3 m.

Type: Ship (hazmat cat A). MMSI: 352870000.

Date/timePositionNaut miles runAvg speedWind from/ knotsBaromVisibWave heightAir tempDewpointWater temp
2016-Jul-20 01:19N 29°20' W 094°40'2011.2
2016-Jul-19 23:33N 29°34' W 094°56'8 7.5
2016-Jul-19 22:33N 29°41' W 095°00'0 0.0
2016-Jul-19 20:27N 29°41' W 095°00'0 0.0
2016-Jul-19 19:30N 29°41' W 095°00'0 0.0
2016-Jul-19 17:27N 29°41' W 095°00'0 0.0
2016-Jul-19 15:33N 29°41' W 095°00'0 0.0
2016-Jul-19 13:21N 29°41' W 095°00'0 0.0
2016-Jul-19 09:33N 29°41' W 095°00'0 0.0
2016-Jul-19 02:21N 29°41' W 095°00'0 0.0
2016-Jul-19 01:27N 29°41' W 095°00'0 0.0
2016-Jul-18 23:33N 29°41' W 095°00'0 0.0
2016-Jul-18 22:12N 29°41' W 095°00'0 0.0
2016-Jul-18 20:15N 29°41' W 095°00'0 0.0
2016-Jul-18 18:24N 29°41' W 095°00'0 0.0
2016-Jul-18 17:24N 29°41' W 095°00'0 0.0
2016-Jul-18 10:33N 29°41' W 095°00'2 1.9
2016-Jul-18 09:32N 29°40' W 094°58'1111.1
2016-Jul-18 08:33N 29°30' W 094°52'1210.9
2016-Jul-18 07:27N 29°21' W 094°44'  
2016-Jul-15 13:33N 19°49' W 096°12'1818.1
2016-Jul-15 12:33N 19°32' W 096°04'1817.7
2016-Jul-15 11:33N 19°16' W 095°58'1010.4
2016-Jul-15 10:34N 19°12' W 096°08'0 0.3
2016-Jul-15 09:33N 19°13' W 096°08'0 0.0
2016-Jul-15 08:33N 19°13' W 096°08'0 0.0
2016-Jul-15 07:33N 19°13' W 096°08'0 0.0
2016-Jul-15 06:33N 19°13' W 096°08'0 0.0
2016-Jul-15 05:33N 19°13' W 096°08'0 0.0
2016-Jul-15 04:33N 19°13' W 096°08'0 0.0
2016-Jul-15 03:33N 19°13' W 096°08'0 0.0
2016-Jul-15 02:30N 19°13' W 096°08'0 0.0
2016-Jul-15 01:33N 19°13' W 096°08'0 0.0
2016-Jul-15 00:33N 19°13' W 096°08'0 0.0
2016-Jul-14 23:30N 19°13' W 096°08'0 0.0
2016-Jul-14 22:33N 19°13' W 096°08'0 0.0
2016-Jul-14 21:33N 19°13' W 096°08'2 1.8
2016-Jul-14 20:33N 19°12' W 096°06'7 6.9
2016-Jul-14 19:33N 19°13' W 095°59'7 6.3
2016-Jul-14 18:24N 19°18' W 095°53'4 4.6
2016-Jul-14 17:33N 19°14' W 095°52'1312.7
2016-Jul-14 16:33N 19°17' W 095°38'  
2016-Jul-11 03:31N 10°08' W 079°56'1717.6
2016-Jul-11 02:32N 09°51' W 079°57'1717.3
2016-Jul-11 01:33N 09°34' W 079°56'1313.1
2016-Jul-11 00:33N 09°21' W 079°55'1 0.7
2016-Jul-10 23:31N 09°21' W 079°54'0 0.0
2016-Jul-10 22:33N 09°21' W 079°54'0 0.0
2016-Jul-10 21:28N 09°21' W 079°54'0 0.0
2016-Jul-10 20:33N 09°21' W 079°54'0 0.0
2016-Jul-10 19:32N 09°21' W 079°54'0 0.0
2016-Jul-10 18:33N 09°21' W 079°54'0 0.0
2016-Jul-10 17:31N 09°21' W 079°54'2 1.7
2016-Jul-10 16:33N 09°23' W 079°55'7 7.2
2016-Jul-10 15:33N 09°28' W 079°51'1 0.9
2016-Jul-10 14:33N 09°29' W 079°51'3 3.3
2016-Jul-10 13:33N 09°32' W 079°52'1312.7
2016-Jul-10 12:33N 09°44' W 079°46'1212.3
2016-Jul-10 11:33N 09°45' W 079°34'1212.3
2016-Jul-10 10:33N 09°47' W 079°22'  
Track history (hours):
 
Tides and Currents Weather Stations Pressure Air Temp Water Temp Dewpoint Dewpoint Depression Visibility Wind Speed Wind Dir Waves Ship Positions

MSC Florentina

Last reported at 2016-Jul-20 01:19 UTC. Time now 2016-Jul-28 16:22 UTC.
Position N 29°20' W 094°40'.
Warning: this ship's position is 8 days out of date.

Length 300 m; draft 11.3 m.

Type: Ship (hazmat cat A). MMSI: 352870000.

Date/timePositionNaut miles runAvg speedWind from/ knotsBaromVisibWave heightAir tempDewpointWater temp
2016-Jul-20 01:19N 29°20' W 094°40'2011.2
2016-Jul-19 23:33N 29°34' W 094°56'8 7.5
2016-Jul-19 22:33N 29°41' W 095°00'0 0.0
2016-Jul-19 20:27N 29°41' W 095°00'0 0.0
2016-Jul-19 19:30N 29°41' W 095°00'0 0.0
2016-Jul-19 17:27N 29°41' W 095°00'0 0.0
2016-Jul-19 15:33N 29°41' W 095°00'0 0.0
2016-Jul-19 13:21N 29°41' W 095°00'0 0.0
2016-Jul-19 09:33N 29°41' W 095°00'0 0.0
2016-Jul-19 02:21N 29°41' W 095°00'0 0.0
2016-Jul-19 01:27N 29°41' W 095°00'0 0.0
2016-Jul-18 23:33N 29°41' W 095°00'0 0.0
2016-Jul-18 22:12N 29°41' W 095°00'0 0.0
2016-Jul-18 20:15N 29°41' W 095°00'0 0.0
2016-Jul-18 18:24N 29°41' W 095°00'0 0.0
2016-Jul-18 17:24N 29°41' W 095°00'0 0.0
2016-Jul-18 10:33N 29°41' W 095°00'2 1.9
2016-Jul-18 09:32N 29°40' W 094°58'1111.1
2016-Jul-18 08:33N 29°30' W 094°52'1210.9
2016-Jul-18 07:27N 29°21' W 094°44'  
2016-Jul-15 13:33N 19°49' W 096°12'1818.1
2016-Jul-15 12:33N 19°32' W 096°04'1817.7
2016-Jul-15 11:33N 19°16' W 095°58'1010.4
2016-Jul-15 10:34N 19°12' W 096°08'0 0.3
2016-Jul-15 09:33N 19°13' W 096°08'0 0.0
2016-Jul-15 08:33N 19°13' W 096°08'0 0.0
2016-Jul-15 07:33N 19°13' W 096°08'0 0.0
2016-Jul-15 06:33N 19°13' W 096°08'0 0.0
2016-Jul-15 05:33N 19°13' W 096°08'0 0.0
2016-Jul-15 04:33N 19°13' W 096°08'0 0.0
2016-Jul-15 03:33N 19°13' W 096°08'0 0.0
2016-Jul-15 02:30N 19°13' W 096°08'0 0.0
2016-Jul-15 01:33N 19°13' W 096°08'0 0.0
2016-Jul-15 00:33N 19°13' W 096°08'0 0.0
2016-Jul-14 23:30N 19°13' W 096°08'0 0.0
2016-Jul-14 22:33N 19°13' W 096°08'0 0.0
2016-Jul-14 21:33N 19°13' W 096°08'2 1.8
2016-Jul-14 20:33N 19°12' W 096°06'7 6.9
2016-Jul-14 19:33N 19°13' W 095°59'7 6.3
2016-Jul-14 18:24N 19°18' W 095°53'4 4.6
2016-Jul-14 17:33N 19°14' W 095°52'1312.7
2016-Jul-14 16:33N 19°17' W 095°38'  
2016-Jul-11 03:31N 10°08' W 079°56'1717.6
2016-Jul-11 02:32N 09°51' W 079°57'1717.3
2016-Jul-11 01:33N 09°34' W 079°56'1313.1
2016-Jul-11 00:33N 09°21' W 079°55'1 0.7
2016-Jul-10 23:31N 09°21' W 079°54'0 0.0
2016-Jul-10 22:33N 09°21' W 079°54'0 0.0
2016-Jul-10 21:28N 09°21' W 079°54'0 0.0
2016-Jul-10 20:33N 09°21' W 079°54'0 0.0
2016-Jul-10 19:32N 09°21' W 079°54'0 0.0
2016-Jul-10 18:33N 09°21' W 079°54'0 0.0
2016-Jul-10 17:31N 09°21' W 079°54'2 1.7
2016-Jul-10 16:33N 09°23' W 079°55'7 7.2
2016-Jul-10 15:33N 09°28' W 079°51'1 0.9
2016-Jul-10 14:33N 09°29' W 079°51'3 3.3
2016-Jul-10 13:33N 09°32' W 079°52'1312.7
2016-Jul-10 12:33N 09°44' W 079°46'1212.3
2016-Jul-10 11:33N 09°45' W 079°34'1212.3
2016-Jul-10 10:33N 09°47' W 079°22'  

Dump ship's entire track history